Time;durP1;ratioP1;P1;durP2;ratioP2;P2;SDS_P1;SDS_P2;PMS_P1;PMS_P2;Temp;Humidity;BMP_temperature;BMP_pressure;BME280_temperature;BME280_humidity;BME280_pressure;Samples;Min_cycle;Max_cycle;Signal;HPM_P1;HPM_P2
2021/06/16 00:01:23;;;;;;;8.02;3.47;;;;;;;21.25;57.70;99802.06;2197376;40;20059;-88
2021/06/16 00:02:54;;;;;;;7.63;3.42;;;;;;;21.32;57.61;99811.00;2197350;40;20812;-87
2021/06/16 00:04:26;;;;;;;5.38;2.97;;;;;;;21.39;57.60;99801.94;2197515;40;20035;-89
2021/06/16 00:05:58;;;;;;;6.18;2.63;;;;;;;21.42;57.84;99815.09;2197393;40;20035;-90
2021/06/16 00:07:30;;;;;;;6.22;3.70;;;;;;;21.43;58.10;99800.47;2197430;40;20691;-88
2021/06/16 00:09:02;;;;;;;8.18;3.40;;;;;;;21.43;58.21;99801.28;2194088;40;20599;-88
2021/06/16 00:10:34;;;;;;;8.40;3.30;;;;;;;21.45;58.51;99809.19;2197464;40;20023;-90
2021/06/16 00:12:05;;;;;;;6.82;3.30;;;;;;;21.49;58.56;99799.56;2199928;40;20027;-86
2021/06/16 00:13:39;;;;;;;7.00;3.05;;;;;;;21.52;59.15;99807.28;2203435;40;20063;-89
2021/06/16 00:15:14;;;;;;;6.32;3.80;;;;;;;21.51;58.85;99803.72;2203480;40;20054;-89
2021/06/16 00:16:46;;;;;;;7.75;3.58;;;;;;;21.51;59.17;99801.00;2190544;40;20055;-87
2021/06/16 00:18:17;;;;;;;8.80;3.30;;;;;;;21.53;59.12;99800.78;2196835;40;20054;-86
2021/06/16 00:19:49;;;;;;;6.75;3.63;;;;;;;21.55;59.27;99806.00;2197084;40;20042;-86
2021/06/16 00:21:20;;;;;;;8.20;3.80;;;;;;;21.51;59.37;99808.34;2197095;40;20184;-88
2021/06/16 00:22:54;;;;;;;6.15;3.38;;;;;;;21.52;59.33;99801.84;2197190;40;20031;-86
2021/06/16 00:24:28;;;;;;;9.10;3.13;;;;;;;21.53;58.97;99803.50;2197484;40;20050;-89
2021/06/16 00:25:59;;;;;;;6.22;3.72;;;;;;;21.53;59.15;99794.50;2197679;40;20035;-87
2021/06/16 00:27:31;;;;;;;6.45;3.17;;;;;;;21.49;59.22;99805.00;2203172;40;20030;-87
2021/06/16 00:29:06;;;;;;;8.13;3.70;;;;;;;21.50;59.35;99806.66;2203289;40;20042;-88
2021/06/16 00:30:37;;;;;;;6.95;3.90;;;;;;;21.51;59.51;99802.91;2203506;40;20042;-87
2021/06/16 00:32:09;;;;;;;10.02;4.00;;;;;;;21.51;59.36;99802.91;2203534;40;20038;-86
2021/06/16 00:33:40;;;;;;;6.88;3.70;;;;;;;21.49;59.26;99796.84;2203204;40;20027;-87
2021/06/16 00:35:16;;;;;;;7.35;3.42;;;;;;;21.51;59.20;99808.34;2203253;40;20031;-87
2021/06/16 00:36:47;;;;;;;7.47;3.50;;;;;;;;;;2209531;40;20034;-84
2021/06/16 00:38:19;;;;;;;7.13;3.65;;;;;;;21.58;59.02;99805.56;2209625;40;20051;-88
2021/06/16 00:39:50;;;;;;;6.32;3.53;;;;;;;21.53;59.22;99798.06;2209673;40;20038;-89
2021/06/16 00:41:22;;;;;;;7.05;3.75;;;;;;;21.55;59.35;99798.66;2203419;40;20126;-86
2021/06/16 00:42:53;;;;;;;5.57;3.28;;;;;;;21.53;59.30;99799.94;2203314;40;20035;-88
2021/06/16 00:44:26;;;;;;;6.40;3.53;;;;;;;21.50;59.58;99798.50;2203234;40;20046;-89
2021/06/16 00:45:59;;;;;;;6.63;3.92;;;;;;;21.45;59.71;99795.59;2203364;40;20035;-90
2021/06/16 00:47:31;;;;;;;7.47;3.85;;;;;;;21.39;60.05;99801.94;2203594;40;20063;-89
2021/06/16 00:49:03;;;;;;;9.00;3.78;;;;;;;21.27;59.92;99802.66;2203065;40;20019;-85
2021/06/16 00:50:37;;;;;;;23.58;10.90;;;;;;;21.12;59.65;99804.88;2203989;40;20035;-88
2021/06/16 00:52:08;;;;;;;13.55;8.45;;;;;;;21.02;59.66;99802.63;2203397;40;23598;-87
2021/06/16 00:53:40;;;;;;;16.67;9.93;;;;;;;21.01;59.31;99798.28;2209607;40;20037;-87
2021/06/16 00:55:13;;;;;;;11.27;6.45;;;;;;;20.99;58.75;99800.38;2210205;40;20045;-88
2021/06/16 00:56:45;;;;;;;7.72;4.10;;;;;;;20.97;58.21;99802.47;2210172;40;20030;-86
2021/06/16 00:58:17;;;;;;;9.20;4.15;;;;;;;20.88;57.87;99799.16;2210270;40;20034;-87
2021/06/16 00:59:56;;;;;;;6.50;3.13;;;;;;;20.79;57.59;99795.03;2210321;40;20037;-89
2021/06/16 01:01:29;;;;;;;7.90;3.17;;;;;;;20.75;57.24;99804.69;2204152;40;20038;-86
2021/06/16 01:03:07;;;;;;;7.53;2.85;;;;;;;20.72;57.15;99793.19;2204098;40;20039;-89
2021/06/16 01:04:40;;;;;;;7.18;3.10;;;;;;;20.80;56.96;99802.16;2204069;40;20027;-87
2021/06/16 01:06:17;;;;;;;7.47;2.80;;;;;;;20.82;56.81;99798.19;2204107;40;20035;-86
2021/06/16 01:07:57;;;;;;;5.85;3.42;;;;;;;20.82;56.85;99800.06;2204192;40;20034;-89
2021/06/16 01:09:32;;;;;;;5.13;2.95;;;;;;;20.85;56.79;99796.91;2204486;40;20023;-88
2021/06/16 01:11:10;;;;;;;5.88;3.03;;;;;;;20.92;56.86;99794.16;2203878;40;20054;-88
2021/06/16 01:12:46;;;;;;;5.32;2.78;;;;;;;20.97;56.56;99800.56;2202697;40;20043;-82
2021/06/16 01:14:22;;;;;;;5.10;2.45;;;;;;;20.99;56.52;99800.38;2203851;40;20038;-81
2021/06/16 01:16:05;;;;;;;7.20;2.63;;;;;;;21.00;56.43;99802.84;2209465;40;20038;-84
2021/06/16 01:17:43;;;;;;;6.28;3.50;;;;;;;21.04;56.72;99798.66;2197277;40;20041;-81
2021/06/16 01:19:29;;;;;;;8.57;4.00;;;;;;;21.08;56.86;99799.06;2200587;40;20049;-81
2021/06/16 01:21:02;;;;;;;6.82;3.92;;;;;;;21.08;57.46;99801.78;2209658;40;20065;-82
2021/06/16 01:22:41;;;;;;;6.47;3.47;;;;;;;21.10;57.96;99806.97;2209486;40;20049;-81
2021/06/16 01:24:18;;;;;;;7.70;3.38;;;;;;;21.07;58.57;99800.09;2197817;40;20094;-81
2021/06/16 01:25:58;;;;;;;8.82;4.03;;;;;;;21.02;59.30;99805.34;2197017;40;20579;-82
2021/06/16 01:27:33;;;;;;;12.07;4.50;;;;;;;20.98;59.97;99807.69;2204127;40;20056;-81
2021/06/16 01:29:12;;;;;;;5.90;3.22;;;;;;;20.91;60.45;99804.19;2203689;40;20408;-80
2021/06/16 01:30:46;;;;;;;6.47;3.80;;;;;;;20.89;60.44;99792.69;2207831;40;20561;-82
2021/06/16 01:32:19;;;;;;;5.07;3.42;;;;;;;20.88;60.72;99794.59;2209838;40;20037;-81
2021/06/16 01:33:52;;;;;;;6.88;3.20;;;;;;;20.93;60.86;99796.66;2208697;40;20053;-82
2021/06/16 01:35:27;;;;;;;7.38;3.67;;;;;;;20.93;60.71;99799.38;2208786;40;20045;-82
2021/06/16 01:36:59;;;;;;;6.85;3.53;;;;;;;20.91;60.73;99800.63;2206478;40;20140;-80
2021/06/16 01:38:31;;;;;;;5.63;3.40;;;;;;;20.87;61.00;99802.97;2209541;40;20054;-80
2021/06/16 01:40:05;;;;;;;7.88;4.00;;;;;;;20.84;60.98;99797.97;2209086;40;20037;-83
2021/06/16 01:41:38;;;;;;;7.47;4.25;;;;;;;20.78;61.11;99798.84;2200844;40;20039;-81
2021/06/16 01:43:10;;;;;;;15.57;4.03;;;;;;;20.79;61.26;99803.19;2203297;40;20041;-81
2021/06/16 01:44:43;;;;;;;9.20;3.85;;;;;;;20.77;61.42;99802.59;2208674;40;20049;-80
2021/06/16 01:46:17;;;;;;;8.00;3.67;;;;;;;20.77;61.52;99795.28;2208468;40;20054;-81
2021/06/16 01:47:50;;;;;;;7.53;4.30;;;;;;;20.74;61.56;99790.28;2204545;40;20117;-81
2021/06/16 01:49:26;;;;;;;6.13;3.70;;;;;;;20.71;61.71;99801.56;2204228;40;20337;-80
2021/06/16 01:50:58;;;;;;;6.43;3.78;;;;;;;20.69;61.59;99799.03;2210108;40;20080;-80
2021/06/16 01:52:32;;;;;;;9.27;3.95;;;;;;;20.67;61.80;99795.72;2211414;40;20036;-80
2021/06/16 01:54:12;;;;;;;7.10;3.30;;;;;;;20.63;61.67;99790.97;2209210;40;20038;-82
2021/06/16 01:55:43;;;;;;;6.88;3.47;;;;;;;20.61;61.59;99793.88;2211956;40;20061;-80
2021/06/16 01:57:16;;;;;;;8.75;4.13;;;;;;;20.62;61.69;99792.00;2208787;40;20054;-81
2021/06/16 01:58:49;;;;;;;8.38;3.70;;;;;;;20.63;62.03;99791.78;2208017;40;20046;-80
2021/06/16 02:00:21;;;;;;;9.00;3.58;;;;;;;20.58;61.88;99788.88;2206597;40;20030;-81
2021/06/16 02:01:54;;;;;;;4.60;3.17;;;;;;;20.56;62.24;99793.69;2211661;40;20049;-80
2021/06/16 02:03:26;;;;;;;6.18;2.95;;;;;;;20.52;62.31;99793.31;2207322;40;20883;-81
2021/06/16 02:04:58;;;;;;;7.20;3.25;;;;;;;20.52;62.42;99787.03;2208761;40;20022;-80
2021/06/16 02:06:36;;;;;;;7.72;3.88;;;;;;;20.47;62.29;99795.81;2209700;40;20039;-82
2021/06/16 02:08:20;;;;;;;6.43;3.35;;;;;;;20.37;62.76;99790.88;2208413;40;20026;-85
2021/06/16 02:09:54;;;;;;;6.22;3.40;;;;;;;20.36;62.54;99786.47;2209992;40;20048;-80
2021/06/16 02:11:27;;;;;;;7.05;3.80;;;;;;;20.37;62.57;99782.72;2197776;40;20035;-81
2021/06/16 02:13:02;;;;;;;7.22;3.83;;;;;;;20.38;62.33;99783.53;2198542;40;20046;-81
2021/06/16 02:14:35;;;;;;;5.65;3.42;;;;;;;20.39;62.52;99791.50;2205475;40;20115;-81
2021/06/16 02:16:10;;;;;;;7.43;3.85;;;;;;;20.37;62.48;99788.16;2197727;40;20074;-82
2021/06/16 02:17:49;;;;;;;7.50;3.75;;;;;;;20.32;62.61;99785.22;2205241;40;20037;-82
2021/06/16 02:19:25;;;;;;;8.07;3.70;;;;;;;20.24;62.74;99789.03;2209622;40;20030;-80
2021/06/16 02:20:58;;;;;;;7.25;3.95;;;;;;;20.07;63.17;99783.25;2204872;40;20046;-83
2021/06/16 02:22:30;;;;;;;6.07;3.80;;;;;;;19.90;63.44;99785.59;2203381;40;20034;-82
2021/06/16 02:24:02;;;;;;;7.47;3.40;;;;;;;19.81;63.68;99781.41;2208385;40;20121;-80
2021/06/16 02:25:34;;;;;;;6.63;3.70;;;;;;;19.76;64.00;99787.47;2207455;40;20062;-83
2021/06/16 02:27:07;;;;;;;6.57;3.00;;;;;;;19.69;64.18;99783.94;2205299;40;20050;-80
2021/06/16 02:28:39;;;;;;;9.05;3.70;;;;;;;19.64;64.47;99779.16;2211409;40;20118;-80
2021/06/16 02:30:13;;;;;;;6.70;3.60;;;;;;;19.58;64.56;99782.72;2210917;40;20042;-80
2021/06/16 02:31:45;;;;;;;6.72;3.92;;;;;;;19.51;64.69;99778.34;2207659;40;20026;-80
2021/06/16 02:33:16;;;;;;;9.75;4.28;;;;;;;19.45;65.20;99780.84;2210802;40;20038;-80
2021/06/16 02:34:48;;;;;;;6.05;3.60;;;;;;;19.40;65.22;99777.91;2205118;40;20041;-79
2021/06/16 02:36:21;;;;;;;9.07;4.55;;;;;;;19.38;65.45;99777.28;2211307;40;20046;-80
2021/06/16 02:38:02;;;;;;;6.68;3.70;;;;;;;19.39;65.40;99770.81;2207735;40;20038;-80
2021/06/16 02:39:40;;;;;;;8.18;4.03;;;;;;;19.41;65.72;99774.16;2211422;40;20275;-79
2021/06/16 02:41:15;;;;;;;6.07;3.55;;;;;;;19.38;65.70;99773.75;2208256;40;20049;-80
2021/06/16 02:42:50;;;;;;;6.80;4.10;;;;;;;19.34;65.78;99776.06;2206742;40;20050;-80
2021/06/16 02:44:23;;;;;;;6.75;3.65;;;;;;;19.29;65.96;99768.56;2208093;40;20527;-79
2021/06/16 02:45:58;;;;;;;6.88;3.83;;;;;;;19.29;66.25;99771.25;2212846;40;20049;-79
2021/06/16 02:47:33;;;;;;;10.10;4.88;;;;;;;19.27;66.19;99767.91;2209090;40;20026;-80
2021/06/16 02:49:08;;;;;;;6.10;3.85;;;;;;;19.24;66.23;99762.09;2211339;40;20053;-80
2021/06/16 02:50:41;;;;;;;9.07;3.70;;;;;;;19.18;66.32;99774.59;2209541;40;20476;-80
2021/06/16 02:52:17;;;;;;;6.88;3.35;;;;;;;19.13;66.48;99774.38;2204227;40;20039;-79
2021/06/16 02:53:49;;;;;;;7.30;4.05;;;;;;;19.10;66.68;99772.09;2205783;40;20034;-80
2021/06/16 02:55:24;;;;;;;9.23;3.92;;;;;;;19.04;66.89;99773.75;2209798;40;20031;-79
2021/06/16 02:56:58;;;;;;;9.07;4.60;;;;;;;19.00;67.03;99765.22;2205346;40;20042;-80
2021/06/16 02:58:33;;;;;;;7.40;3.65;;;;;;;18.99;67.43;99770.81;2208143;40;20041;-80
2021/06/16 03:00:06;;;;;;;10.52;4.50;;;;;;;18.94;67.23;99773.31;2210385;40;20048;-80
2021/06/16 03:01:40;;;;;;;6.38;3.90;;;;;;;18.88;67.66;99774.13;2209243;40;20054;-80
2021/06/16 03:03:12;;;;;;;6.57;3.53;;;;;;;18.86;67.71;99767.03;2212591;40;20053;-80
2021/06/16 03:04:47;;;;;;;9.45;4.32;;;;;;;18.92;67.44;99770.81;2208412;40;20046;-80
2021/06/16 03:06:21;;;;;;;6.68;4.10;;;;;;;18.92;67.32;99759.97;2185832;40;20040;-83
2021/06/16 03:07:57;;;;;;;8.23;3.92;;;;;;;18.89;67.58;99770.38;2199342;40;20023;-82
2021/06/16 03:09:30;;;;;;;6.35;4.25;;;;;;;18.85;67.77;99768.06;2198379;40;20304;-83
2021/06/16 03:11:04;;;;;;;6.22;3.92;;;;;;;18.88;67.67;99766.00;2204243;40;20034;-82
2021/06/16 03:14:29;;;;;;;6.70;3.92;;;;;;;18.88;67.44;99760.59;2195905;40;20237;-85
2021/06/16 03:16:04;;;;;;;6.90;4.00;;;;;;;18.85;67.38;99757.25;2195834;40;20042;-83
2021/06/16 03:17:39;;;;;;;9.13;4.60;;;;;;;18.85;67.48;99767.22;2197900;40;20035;-82
2021/06/16 03:19:11;;;;;;;8.65;4.95;;;;;;;18.81;67.91;99765.97;2198387;40;20042;-82
2021/06/16 03:20:43;;;;;;;6.28;3.60;;;;;;;18.78;67.90;99761.81;2203822;40;20041;-82
2021/06/16 03:22:16;;;;;;;8.27;4.43;;;;;;;18.79;67.95;99765.34;2203252;40;20051;-82
2021/06/16 03:23:50;;;;;;;10.05;4.40;;;;;;;18.80;67.79;99770.56;2204369;40;20046;-82
2021/06/16 03:25:21;;;;;;;7.05;3.95;;;;;;;18.80;67.72;99767.84;2207486;40;20042;-87
2021/06/16 03:26:53;;;;;;;7.32;3.95;;;;;;;18.82;67.85;99768.47;2209096;40;20053;-82
2021/06/16 03:28:29;;;;;;;7.28;4.18;;;;;;;18.86;67.44;99774.31;2209855;40;20041;-83
2021/06/16 03:30:01;;;;;;;6.07;3.97;;;;;;;18.88;67.47;99763.28;2209694;40;20037;-82
2021/06/16 03:31:34;;;;;;;8.02;3.78;;;;;;;18.97;67.28;99767.50;2210082;40;20026;-85
2021/06/16 03:33:11;;;;;;;8.13;4.38;;;;;;;19.01;67.33;99774.16;2211146;40;20488;-80
2021/06/16 03:34:43;;;;;;;9.43;4.22;;;;;;;19.04;67.07;99768.34;2210492;40;20026;-79
2021/06/16 03:36:15;;;;;;;8.85;4.35;;;;;;;19.00;67.44;99769.78;2204816;40;20035;-80
2021/06/16 03:37:49;;;;;;;10.65;4.00;;;;;;;18.91;67.33;99768.28;2204863;40;20059;-79
2021/06/16 03:39:23;;;;;;;8.50;4.75;;;;;;;18.84;67.81;99766.41;2203271;40;20038;-81
2021/06/16 03:40:56;;;;;;;7.85;4.18;;;;;;;18.81;67.83;99766.81;2203315;40;20041;-82
2021/06/16 03:42:28;;;;;;;9.38;4.15;;;;;;;18.79;67.81;99766.19;2206943;40;20038;-81
2021/06/16 03:44:02;;;;;;;10.18;4.28;;;;;;;18.80;67.78;99765.13;2207729;40;20054;-80
2021/06/16 03:45:35;;;;;;;7.93;4.95;;;;;;;18.78;67.86;99766.38;2206196;40;20034;-82
2021/06/16 03:47:11;;;;;;;11.13;4.25;;;;;;;18.79;67.63;99762.63;2208787;40;20057;-82
2021/06/16 03:48:47;;;;;;;7.03;4.57;;;;;;;18.78;67.82;99767.25;2202139;40;20046;-82
2021/06/16 03:50:19;;;;;;;6.95;4.22;;;;;;;18.77;67.91;99765.56;2206785;40;20446;-80
2021/06/16 03:51:53;;;;;;;8.55;4.35;;;;;;;18.71;68.15;99767.22;2207123;40;20559;-80
2021/06/16 04:38:22;;;;;;;9.55;4.90;;;;;;;18.53;68.09;99764.25;2197804;40;20024;-86
2021/06/16 04:39:53;;;;;;;7.40;4.13;;;;;;;18.50;67.75;99768.22;2198130;40;20027;-86
2021/06/16 04:41:25;;;;;;;7.05;3.83;;;;;;;18.51;67.79;99769.88;2197668;40;20027;-88
2021/06/16 04:42:57;;;;;;;8.05;4.18;;;;;;;18.49;67.73;99771.94;2203735;40;20038;-85
2021/06/16 04:44:29;;;;;;;6.65;4.13;;;;;;;18.49;67.58;99771.94;2203833;40;20031;-87
2021/06/16 04:46:00;;;;;;;5.75;3.67;;;;;;;18.49;67.57;99762.97;2203918;40;20031;-86
2021/06/16 04:47:32;;;;;;;7.32;4.95;;;;;;;18.49;67.22;99762.97;2203982;40;20039;-87
2021/06/16 04:49:04;;;;;;;7.47;4.57;;;;;;;18.54;67.06;99763.22;2203910;40;20031;-86
2021/06/16 04:50:36;;;;;;;7.53;4.22;;;;;;;18.54;66.96;99758.63;2204328;40;20031;-85
2021/06/16 04:52:07;;;;;;;6.32;3.55;;;;;;;18.55;66.91;99765.72;2205881;40;20027;-87
2021/06/16 04:53:41;;;;;;;8.73;4.13;;;;;;;18.59;66.73;99765.31;2203793;40;20477;-85
2021/06/16 04:55:14;;;;;;;7.82;4.75;;;;;;;18.61;66.89;99765.97;2203814;40;20039;-86
2021/06/16 04:56:45;;;;;;;11.70;4.38;;;;;;;18.61;66.93;99764.06;2203941;40;20031;-86
2021/06/16 04:58:17;;;;;;;7.03;4.43;;;;;;;18.61;67.15;99763.25;2203933;40;20033;-87
2021/06/16 04:59:48;;;;;;;10.20;5.57;;;;;;;18.62;66.82;99763.03;2203904;40;20042;-86
2021/06/16 05:01:20;;;;;;;16.50;5.13;;;;;;;18.66;66.83;99766.97;2204319;40;20038;-86
2021/06/16 05:02:54;;;;;;;9.70;5.35;;;;;;;18.68;66.65;99762.19;2203910;40;20030;-87
2021/06/16 05:04:25;;;;;;;12.00;4.70;;;;;;;18.68;66.83;99764.91;2203857;40;20402;-86
2021/06/16 05:05:57;;;;;;;9.07;4.70;;;;;;;18.74;67.13;99762.44;2203529;40;20049;-86
2021/06/16 05:07:28;;;;;;;8.52;5.13;;;;;;;18.77;66.97;99762.84;2203952;40;20043;-88
2021/06/16 05:09:00;;;;;;;10.23;5.20;;;;;;;18.83;66.82;99767.44;2203922;40;20131;-85
2021/06/16 05:10:32;;;;;;;10.30;5.13;;;;;;;18.91;66.94;99762.84;2203984;40;20031;-88
2021/06/16 05:12:06;;;;;;;7.70;4.45;;;;;;;18.95;66.77;99764.16;2203827;40;20042;-88
2021/06/16 05:13:37;;;;;;;7.80;4.47;;;;;;;19.02;66.62;99765.84;2203870;40;20038;-88
2021/06/16 05:15:10;;;;;;;8.02;4.85;;;;;;;19.07;66.11;99762.50;2203789;40;20042;-88
2021/06/16 05:16:42;;;;;;;7.63;4.78;;;;;;;19.10;66.29;99759.38;2203807;40;20039;-88
2021/06/16 05:18:14;;;;;;;10.63;4.95;;;;;;;19.19;66.12;99751.88;2203886;40;20027;-87
2021/06/16 05:19:45;;;;;;;10.20;5.22;;;;;;;19.23;66.03;99750.41;2197718;40;20031;-89
2021/06/16 05:21:18;;;;;;;10.50;4.70;;;;;;;19.29;65.70;99754.16;2197757;40;20044;-89
2021/06/16 05:22:49;;;;;;;9.05;5.10;;;;;;;19.31;65.86;99747.50;2197704;40;20616;-88
2021/06/16 05:24:23;;;;;;;8.18;5.32;;;;;;;19.36;65.34;99752.31;2197670;40;20023;-87
2021/06/16 05:25:55;;;;;;;7.65;4.95;;;;;;;19.36;65.49;99746.88;2197647;40;20039;-87
2021/06/16 05:27:27;;;;;;;12.27;5.55;;;;;;;19.39;65.23;99751.03;2197860;40;20050;-86
2021/06/16 05:28:59;;;;;;;8.95;5.22;;;;;;;19.46;64.97;99743.72;2197739;40;20036;-88
2021/06/16 05:30:31;;;;;;;7.47;4.57;;;;;;;19.59;64.82;99737.44;2197901;40;20434;-88
2021/06/16 05:32:03;;;;;;;10.60;5.22;;;;;;;19.73;64.44;99747.22;2203810;40;20124;-84
2021/06/16 05:33:36;;;;;;;9.25;4.93;;;;;;;19.85;64.29;99744.72;2203846;40;20034;-83
2021/06/16 05:35:09;;;;;;;8.07;5.43;;;;;;;19.93;63.60;99743.66;2203538;40;20031;-85
2021/06/16 05:36:41;;;;;;;7.78;5.25;;;;;;;20.02;63.43;99736.94;2204066;40;20038;-84
2021/06/16 05:38:13;;;;;;;6.85;4.45;;;;;;;20.06;63.23;99738.16;2212083;40;20638;-87
2021/06/16 05:39:46;;;;;;;10.55;5.45;;;;;;;20.13;62.55;99743.56;2216051;40;20037;-85
2021/06/16 05:41:18;;;;;;;7.45;5.28;;;;;;;20.20;62.56;99738.13;2215756;40;20049;-85
2021/06/16 05:42:49;;;;;;;7.68;4.45;;;;;;;20.30;62.22;99737.66;2215979;40;20033;-85
2021/06/16 05:44:21;;;;;;;7.97;4.10;;;;;;;20.31;62.36;99736.59;2216014;40;20029;-86
2021/06/16 05:45:53;;;;;;;7.40;4.28;;;;;;;20.35;61.84;99741.38;2215906;40;20038;-86
2021/06/16 05:47:25;;;;;;;8.20;5.00;;;;;;;20.40;61.69;99744.25;2215930;40;20034;-86
2021/06/16 05:48:56;;;;;;;17.98;5.40;;;;;;;20.49;61.49;99742.16;2215954;40;20045;-88
2021/06/16 05:50:28;;;;;;;9.00;4.95;;;;;;;20.57;61.08;99741.88;2215975;40;20033;-87
2021/06/16 05:52:00;;;;;;;8.45;4.80;;;;;;;20.62;60.50;99746.66;2215824;40;20034;-88
2021/06/16 05:53:32;;;;;;;8.98;4.78;;;;;;;20.67;60.27;99738.72;2215987;40;20053;-85
2021/06/16 05:55:06;;;;;;;6.70;4.75;;;;;;;20.73;60.24;99746.00;2215977;40;20030;-85
2021/06/16 05:56:38;;;;;;;8.48;4.25;;;;;;;20.81;60.03;99739.47;2216085;40;20022;-86
2021/06/16 05:58:09;;;;;;;6.30;3.65;;;;;;;20.90;59.85;99742.75;2215979;40;20042;-88
2021/06/16 05:59:41;;;;;;;11.10;4.35;;;;;;;20.98;59.34;99739.75;2215947;40;20022;-86
2021/06/16 06:01:12;;;;;;;10.00;4.75;;;;;;;20.99;58.73;99744.13;2203860;40;20030;-86
2021/06/16 06:02:44;;;;;;;9.13;4.50;;;;;;;21.05;58.89;99742.41;2203691;40;20043;-86
2021/06/16 06:04:16;;;;;;;7.22;3.92;;;;;;;21.13;58.49;99741.31;2203413;40;20034;-85
2021/06/16 06:05:48;;;;;;;7.68;4.68;;;;;;;21.17;58.05;99743.38;2203427;40;20031;-87
2021/06/16 06:07:22;;;;;;;8.90;4.75;;;;;;;21.20;57.96;99736.66;2203204;40;20042;-85
2021/06/16 06:08:54;;;;;;;9.52;4.75;;;;;;;21.26;57.40;99741.19;2202937;40;20023;-86
2021/06/16 06:10:27;;;;;;;7.57;4.50;;;;;;;21.31;57.04;99743.25;2203736;40;20023;-84
2021/06/16 06:11:58;;;;;;;13.73;5.47;;;;;;;21.34;56.76;99732.78;2203623;40;20038;-84
2021/06/16 06:13:30;;;;;;;8.75;4.72;;;;;;;21.37;57.11;99736.09;2203714;40;20046;-84
2021/06/16 06:15:02;;;;;;;11.13;5.03;;;;;;;21.44;56.86;99747.75;2203633;40;20031;-84
2021/06/16 06:16:34;;;;;;;8.55;4.78;;;;;;;21.50;56.59;99738.69;2210384;40;20042;-81
2021/06/16 06:18:07;;;;;;;8.10;4.30;;;;;;;21.55;56.73;99741.56;2212008;40;20041;-85
2021/06/16 06:19:38;;;;;;;9.80;4.72;;;;;;;21.62;56.54;99734.22;2209636;40;20027;-87
2021/06/16 06:21:10;;;;;;;7.35;4.95;;;;;;;21.63;56.00;99740.47;2209636;40;20041;-85
2021/06/16 06:22:42;;;;;;;6.75;4.47;;;;;;;21.69;55.99;99736.00;2209578;40;20482;-85
2021/06/16 06:24:14;;;;;;;11.77;3.92;;;;;;;21.73;55.90;99726.31;2209226;40;20043;-86
2021/06/16 06:25:47;;;;;;;13.70;4.10;;;;;;;21.78;55.55;99727.31;2209491;40;20031;-86
2021/06/16 06:27:18;;;;;;;9.02;4.22;;;;;;;21.86;55.33;99728.91;2209242;40;20501;-86
2021/06/16 06:28:50;;;;;;;13.50;5.63;;;;;;;21.91;54.80;99729.09;2209504;40;20045;-86
2021/06/16 06:30:22;;;;;;;8.63;4.63;;;;;;;21.91;54.72;99725.50;2209181;40;20027;-86
2021/06/16 06:31:54;;;;;;;10.98;4.65;;;;;;;21.97;54.61;99730.03;2209324;40;20061;-85
2021/06/16 06:33:25;;;;;;;11.32;5.03;;;;;;;22.00;54.24;99731.50;2203254;40;20233;-85
2021/06/16 06:34:57;;;;;;;13.73;4.60;;;;;;;22.04;54.28;99735.41;2202872;40;20035;-86
2021/06/16 06:36:29;;;;;;;7.90;3.88;;;;;;;22.12;54.04;99724.19;2202331;40;20042;-87
2021/06/16 06:38:01;;;;;;;9.57;4.13;;;;;;;22.17;54.12;99729.81;2202834;40;20039;-86
2021/06/16 06:39:32;;;;;;;14.50;4.47;;;;;;;22.25;53.74;99723.19;2203190;40;20030;-86
2021/06/16 06:41:06;;;;;;;10.13;4.78;;;;;;;22.31;53.44;99729.59;2202128;40;20093;-87
2021/06/16 06:42:36;;;;;;;8.88;4.88;;;;;;;22.37;53.41;99731.44;2202369;40;20043;-87
2021/06/16 06:44:09;;;;;;;11.30;4.70;;;;;;;22.43;52.46;99727.81;2202195;40;20419;-86
2021/06/16 06:45:41;;;;;;;10.50;3.75;;;;;;;22.41;52.37;99736.22;2202828;40;20035;-85
2021/06/16 06:47:14;;;;;;;10.90;4.78;;;;;;;22.48;52.25;99727.97;2201693;40;20023;-85
2021/06/16 06:48:46;;;;;;;11.32;8.93;;;;;;;22.59;52.05;99727.16;2203676;40;20031;-86
2021/06/16 06:50:17;;;;;;;11.85;5.40;;;;;;;22.71;51.52;99723.63;2203611;40;20028;-85
2021/06/16 06:51:49;;;;;;;20.55;6.50;;;;;;;22.80;51.34;99730.41;2202466;40;20038;-85
2021/06/16 06:53:21;;;;;;;9.48;4.82;;;;;;;22.83;51.29;99721.78;2203176;40;20031;-86
2021/06/16 06:54:53;;;;;;;10.38;4.60;;;;;;;22.90;51.01;99727.13;2202790;40;20141;-85
2021/06/16 06:56:26;;;;;;;8.98;3.60;;;;;;;22.99;50.71;99717.53;2203049;40;20041;-86
2021/06/16 06:57:58;;;;;;;10.60;4.15;;;;;;;23.12;50.41;99715.63;2202927;40;20046;-85
2021/06/16 06:59:30;;;;;;;12.98;3.88;;;;;;;23.16;50.10;99709.47;2201879;40;20042;-86
2021/06/16 07:01:02;;;;;;;12.63;4.10;;;;;;;23.21;49.86;99709.66;2201831;40;20047;-85
2021/06/16 07:02:34;;;;;;;13.30;5.05;;;;;;;23.32;49.26;99713.44;2201955;40;20039;-84
2021/06/16 07:04:06;;;;;;;10.93;4.50;;;;;;;23.32;49.39;99707.16;2195210;40;20043;-85
2021/06/16 07:05:38;;;;;;;10.57;4.28;;;;;;;23.42;49.28;99710.13;2186640;40;20112;-83
2021/06/16 07:07:10;;;;;;;10.30;4.40;;;;;;;23.45;48.93;99706.09;2205590;40;20026;-84
2021/06/16 07:08:42;;;;;;;10.57;4.68;;;;;;;23.49;48.98;99702.66;2212960;40;20038;-84
2021/06/16 07:10:14;;;;;;;12.15;3.90;;;;;;;23.56;48.78;99709.88;2213264;40;20045;-84
2021/06/16 07:11:47;;;;;;;12.77;5.28;;;;;;;23.63;48.46;99697.75;2214032;40;20030;-85
2021/06/16 07:13:19;;;;;;;7.97;3.55;;;;;;;23.67;48.24;99698.94;2214563;40;20038;-85
2021/06/16 07:14:53;;;;;;;9.07;3.85;;;;;;;23.79;47.76;99698.94;2214670;40;20065;-85
2021/06/16 07:16:25;;;;;;;9.30;4.28;;;;;;;23.95;47.48;99704.72;2214191;40;20622;-85
2021/06/16 07:17:56;;;;;;;9.18;3.78;;;;;;;24.07;47.37;99707.41;2212915;40;20034;-85
2021/06/16 07:19:28;;;;;;;8.57;3.55;;;;;;;24.10;47.05;99701.47;2214686;40;20700;-84
2021/06/16 07:21:00;;;;;;;7.68;4.10;;;;;;;24.14;46.95;99711.66;2209819;40;20037;-85
2021/06/16 07:22:32;;;;;;;7.00;3.35;;;;;;;24.24;46.97;99697.38;2208168;40;20038;-83
2021/06/16 07:24:05;;;;;;;7.18;3.50;;;;;;;24.35;46.59;99698.41;2196266;40;20039;-84
2021/06/16 07:25:36;;;;;;;12.82;4.40;;;;;;;24.46;46.30;99702.16;2194059;40;20042;-84
2021/06/16 07:27:10;;;;;;;6.57;3.58;;;;;;;24.50;46.34;99702.47;2194156;40;20035;-85
2021/06/16 07:28:42;;;;;;;5.57;3.55;;;;;;;24.55;45.96;99694.41;2196056;40;20127;-85
2021/06/16 07:30:15;;;;;;;5.82;3.42;;;;;;;24.59;45.92;99699.13;2196242;40;20027;-85
2021/06/16 07:31:47;;;;;;;8.02;3.10;;;;;;;24.71;45.98;99696.34;2194906;40;20051;-85
2021/06/16 07:33:19;;;;;;;6.90;3.85;;;;;;;24.80;45.95;99698.66;2184004;40;20079;-85
2021/06/16 07:34:50;;;;;;;6.65;3.38;;;;;;;24.87;45.45;99702.06;2176141;41;20725;-84
2021/06/16 07:36:22;;;;;;;11.45;4.20;;;;;;;24.95;44.94;99709.84;2193427;40;20023;-85
2021/06/16 07:37:53;;;;;;;8.07;3.67;;;;;;;24.96;44.93;99700.56;2197093;40;20023;-84
2021/06/16 07:39:24;;;;;;;8.65;3.75;;;;;;;25.06;44.73;99695.25;2197139;40;20031;-84
2021/06/16 07:40:56;;;;;;;11.82;4.25;;;;;;;25.19;44.73;99696.00;2196956;40;20028;-84
2021/06/16 07:42:29;;;;;;;9.15;4.15;;;;;;;25.26;44.82;99693.91;2196933;40;20416;-84
2021/06/16 07:44:01;;;;;;;9.30;4.20;;;;;;;25.26;44.78;99696.66;2197172;40;20030;-85
2021/06/16 07:45:33;;;;;;;12.65;3.95;;;;;;;25.31;44.73;99696.75;2196897;40;20528;-84
2021/06/16 07:47:04;;;;;;;8.15;4.35;;;;;;;25.33;44.95;99691.00;2193831;40;20498;-84
2021/06/16 07:48:36;;;;;;;10.05;4.47;;;;;;;25.41;44.81;99695.28;2193126;40;20040;-85
2021/06/16 07:50:08;;;;;;;9.85;3.92;;;;;;;25.59;44.42;99691.41;2193303;40;20042;-84
2021/06/16 07:51:40;;;;;;;6.65;3.70;;;;;;;25.75;44.23;99686.97;2192840;40;20055;-85
2021/06/16 07:53:12;;;;;;;8.27;3.80;;;;;;;25.93;43.63;99689.38;2195201;40;20031;-84
2021/06/16 07:54:43;;;;;;;7.95;4.15;;;;;;;26.02;43.33;99687.03;2196367;40;20039;-84
2021/06/16 07:56:16;;;;;;;11.27;4.30;;;;;;;26.13;43.04;99688.81;2196575;40;20379;-88
2021/06/16 07:57:49;;;;;;;9.68;4.10;;;;;;;26.29;42.89;99684.31;2194543;40;20699;-85
2021/06/16 07:59:21;;;;;;;8.07;4.00;;;;;;;26.40;42.20;99687.16;2193037;40;20037;-84
2021/06/16 08:00:53;;;;;;;9.77;3.72;;;;;;;26.40;42.30;99682.50;2193755;40;20105;-85
2021/06/16 08:02:27;;;;;;;11.18;4.20;;;;;;;26.52;42.36;99685.09;2193105;40;20032;-83
2021/06/16 08:03:57;;;;;;;9.38;4.43;;;;;;;26.53;42.11;99678.53;2193335;40;20051;-83